sensor_id;sensor_type;location;lat;lon;timestamp;P1;durP1;ratioP1;P2;durP2;ratioP2
31531;SDS011;23787;52.180;5.288;2022-07-29T00:07:00;4.70;;;1.80;;
31531;SDS011;23787;52.180;5.288;2022-07-29T00:12:01;4.70;;;1.80;;
31531;SDS011;23787;52.180;5.288;2022-07-29T00:17:00;2.30;;;1.60;;
31531;SDS011;23787;52.180;5.288;2022-07-29T00:22:01;2.30;;;1.60;;
31531;SDS011;23787;52.180;5.288;2022-07-29T00:32:01;5.50;;;1.80;;
31531;SDS011;23787;52.180;5.288;2022-07-29T00:47:01;6.60;;;1.80;;
31531;SDS011;23787;52.180;5.288;2022-07-29T00:57:01;6.60;;;1.80;;
31531;SDS011;23787;52.180;5.288;2022-07-29T01:07:01;2.80;;;1.80;;
31531;SDS011;23787;52.180;5.288;2022-07-29T01:12:01;2.80;;;1.80;;
31531;SDS011;23787;52.180;5.288;2022-07-29T01:17:07;5.60;;;1.90;;
31531;SDS011;23787;52.180;5.288;2022-07-29T01:22:11;5.60;;;1.90;;
31531;SDS011;23787;52.180;5.288;2022-07-29T01:27:07;5.60;;;1.90;;
31531;SDS011;23787;52.180;5.288;2022-07-29T01:32:03;3.30;;;1.70;;
31531;SDS011;23787;52.180;5.288;2022-07-29T01:37:06;3.30;;;1.70;;
31531;SDS011;23787;52.180;5.288;2022-07-29T01:42:06;3.30;;;1.70;;
31531;SDS011;23787;52.180;5.288;2022-07-29T01:57:02;4.00;;;1.80;;
31531;SDS011;23787;52.180;5.288;2022-07-29T02:02:02;5.00;;;2.00;;
31531;SDS011;23787;52.180;5.288;2022-07-29T02:07:05;5.00;;;2.00;;
31531;SDS011;23787;52.180;5.288;2022-07-29T02:17:01;3.90;;;2.20;;
31531;SDS011;23787;52.180;5.288;2022-07-29T02:42:03;5.00;;;2.40;;
31531;SDS011;23787;52.180;5.288;2022-07-29T02:47:04;5.80;;;2.20;;
31531;SDS011;23787;52.180;5.288;2022-07-29T02:52:02;5.80;;;2.20;;
31531;SDS011;23787;52.180;5.288;2022-07-29T02:57:06;5.80;;;2.20;;
31531;SDS011;23787;52.180;5.288;2022-07-29T03:02:02;5.60;;;2.30;;
31531;SDS011;23787;52.180;5.288;2022-07-29T03:07:01;5.60;;;2.30;;
31531;SDS011;23787;52.180;5.288;2022-07-29T03:12:03;5.60;;;2.30;;
31531;SDS011;23787;52.180;5.288;2022-07-29T03:17:02;4.70;;;2.30;;
31531;SDS011;23787;52.180;5.288;2022-07-29T03:22:01;4.70;;;2.30;;
31531;SDS011;23787;52.180;5.288;2022-07-29T03:27:01;4.70;;;2.30;;
31531;SDS011;23787;52.180;5.288;2022-07-29T03:32:02;5.30;;;2.30;;
31531;SDS011;23787;52.180;5.288;2022-07-29T03:37:01;5.30;;;2.30;;
31531;SDS011;23787;52.180;5.288;2022-07-29T03:42:01;5.30;;;2.30;;
31531;SDS011;23787;52.180;5.288;2022-07-29T03:57:02;3.30;;;1.80;;
31531;SDS011;23787;52.180;5.288;2022-07-29T04:02:02;7.30;;;2.30;;
31531;SDS011;23787;52.180;5.288;2022-07-29T04:07:01;7.30;;;2.30;;
31531;SDS011;23787;52.180;5.288;2022-07-29T04:17:02;7.50;;;2.60;;
31531;SDS011;23787;52.180;5.288;2022-07-29T04:37:01;5.10;;;2.50;;
31531;SDS011;23787;52.180;5.288;2022-07-29T04:42:01;5.10;;;2.50;;
31531;SDS011;23787;52.180;5.288;2022-07-29T04:47:01;3.70;;;2.10;;
31531;SDS011;23787;52.180;5.288;2022-07-29T04:52:01;3.70;;;2.10;;
31531;SDS011;23787;52.180;5.288;2022-07-29T04:57:01;3.70;;;2.10;;
31531;SDS011;23787;52.180;5.288;2022-07-29T05:02:01;4.30;;;2.30;;
31531;SDS011;23787;52.180;5.288;2022-07-29T05:07:01;4.30;;;2.30;;
31531;SDS011;23787;52.180;5.288;2022-07-29T05:12:01;4.30;;;2.30;;
31531;SDS011;23787;52.180;5.288;2022-07-29T05:17:01;6.20;;;2.20;;
31531;SDS011;23787;52.180;5.288;2022-07-29T05:22:01;6.20;;;2.20;;
31531;SDS011;23787;52.180;5.288;2022-07-29T05:27:01;6.20;;;2.20;;
31531;SDS011;23787;52.180;5.288;2022-07-29T05:32:01;4.20;;;2.40;;
31531;SDS011;23787;52.180;5.288;2022-07-29T05:37:01;4.20;;;2.40;;
31531;SDS011;23787;52.180;5.288;2022-07-29T05:42:01;4.20;;;2.40;;
31531;SDS011;23787;52.180;5.288;2022-07-29T05:47:01;6.70;;;2.40;;
31531;SDS011;23787;52.180;5.288;2022-07-29T05:52:01;6.70;;;2.40;;
31531;SDS011;23787;52.180;5.288;2022-07-29T05:57:01;6.70;;;2.40;;
31531;SDS011;23787;52.180;5.288;2022-07-29T06:02:01;6.10;;;2.40;;
31531;SDS011;23787;52.180;5.288;2022-07-29T06:07:01;6.10;;;2.40;;
31531;SDS011;23787;52.180;5.288;2022-07-29T06:12:01;6.10;;;2.40;;
31531;SDS011;23787;52.180;5.288;2022-07-29T06:17:01;5.80;;;2.30;;
31531;SDS011;23787;52.180;5.288;2022-07-29T06:22:01;5.80;;;2.30;;
31531;SDS011;23787;52.180;5.288;2022-07-29T06:27:01;5.80;;;2.30;;
31531;SDS011;23787;52.180;5.288;2022-07-29T06:32:01;6.40;;;2.60;;
31531;SDS011;23787;52.180;5.288;2022-07-29T06:37:05;6.40;;;2.60;;
31531;SDS011;23787;52.180;5.288;2022-07-29T06:42:01;6.40;;;2.60;;
31531;SDS011;23787;52.180;5.288;2022-07-29T06:47:01;7.30;;;2.70;;
31531;SDS011;23787;52.180;5.288;2022-07-29T06:57:01;7.30;;;2.70;;
31531;SDS011;23787;52.180;5.288;2022-07-29T07:02:01;5.20;;;2.50;;
31531;SDS011;23787;52.180;5.288;2022-07-29T07:07:01;5.20;;;2.50;;
31531;SDS011;23787;52.180;5.288;2022-07-29T07:12:01;5.20;;;2.50;;
31531;SDS011;23787;52.180;5.288;2022-07-29T07:17:01;4.90;;;2.60;;
31531;SDS011;23787;52.180;5.288;2022-07-29T07:22:01;4.90;;;2.60;;
31531;SDS011;23787;52.180;5.288;2022-07-29T07:27:01;4.90;;;2.60;;
31531;SDS011;23787;52.180;5.288;2022-07-29T07:32:01;6.40;;;3.10;;
31531;SDS011;23787;52.180;5.288;2022-07-29T07:37:01;6.40;;;3.10;;
31531;SDS011;23787;52.180;5.288;2022-07-29T07:42:01;6.40;;;3.10;;
31531;SDS011;23787;52.180;5.288;2022-07-29T07:47:01;9.60;;;3.10;;
31531;SDS011;23787;52.180;5.288;2022-07-29T07:52:01;9.60;;;3.10;;
31531;SDS011;23787;52.180;5.288;2022-07-29T07:57:01;9.60;;;3.10;;
31531;SDS011;23787;52.180;5.288;2022-07-29T08:02:01;7.00;;;3.40;;
31531;SDS011;23787;52.180;5.288;2022-07-29T08:07:02;7.00;;;3.40;;
31531;SDS011;23787;52.180;5.288;2022-07-29T08:12:01;7.00;;;3.40;;
31531;SDS011;23787;52.180;5.288;2022-07-29T08:17:01;10.30;;;3.40;;
31531;SDS011;23787;52.180;5.288;2022-07-29T08:22:01;10.30;;;3.40;;
31531;SDS011;23787;52.180;5.288;2022-07-29T08:27:01;10.30;;;3.40;;
31531;SDS011;23787;52.180;5.288;2022-07-29T08:32:01;6.80;;;3.00;;
31531;SDS011;23787;52.180;5.288;2022-07-29T08:37:01;6.80;;;3.00;;
31531;SDS011;23787;52.180;5.288;2022-07-29T08:42:01;6.80;;;3.00;;
31531;SDS011;23787;52.180;5.288;2022-07-29T08:47:01;6.00;;;2.60;;
31531;SDS011;23787;52.180;5.288;2022-07-29T08:52:02;6.00;;;2.60;;
31531;SDS011;23787;52.180;5.288;2022-07-29T08:57:02;6.00;;;2.60;;
31531;SDS011;23787;52.180;5.288;2022-07-29T09:02:01;6.40;;;2.90;;
31531;SDS011;23787;52.180;5.288;2022-07-29T09:07:03;6.40;;;2.90;;
31531;SDS011;23787;52.180;5.288;2022-07-29T09:12:01;6.40;;;2.90;;
31531;SDS011;23787;52.180;5.288;2022-07-29T09:17:01;6.00;;;2.90;;
31531;SDS011;23787;52.180;5.288;2022-07-29T09:22:05;6.00;;;2.90;;
31531;SDS011;23787;52.180;5.288;2022-07-29T09:27:01;6.00;;;2.90;;
31531;SDS011;23787;52.180;5.288;2022-07-29T09:32:06;6.90;;;2.60;;
31531;SDS011;23787;52.180;5.288;2022-07-29T09:37:02;6.90;;;2.60;;
31531;SDS011;23787;52.180;5.288;2022-07-29T09:42:03;6.90;;;2.60;;
31531;SDS011;23787;52.180;5.288;2022-07-29T09:47:02;6.60;;;2.90;;
31531;SDS011;23787;52.180;5.288;2022-07-29T09:52:04;6.60;;;2.90;;
31531;SDS011;23787;52.180;5.288;2022-07-29T09:57:01;6.60;;;2.90;;
31531;SDS011;23787;52.180;5.288;2022-07-29T10:02:01;5.10;;;2.90;;
31531;SDS011;23787;52.180;5.288;2022-07-29T10:07:02;5.10;;;2.90;;
31531;SDS011;23787;52.180;5.288;2022-07-29T10:12:04;5.10;;;2.90;;
31531;SDS011;23787;52.180;5.288;2022-07-29T10:17:02;5.30;;;2.90;;
31531;SDS011;23787;52.180;5.288;2022-07-29T10:22:03;5.30;;;2.90;;
31531;SDS011;23787;52.180;5.288;2022-07-29T10:27:03;5.30;;;2.90;;
31531;SDS011;23787;52.180;5.288;2022-07-29T10:32:09;6.50;;;2.90;;
31531;SDS011;23787;52.180;5.288;2022-07-29T10:37:06;6.50;;;2.90;;
31531;SDS011;23787;52.180;5.288;2022-07-29T10:42:11;6.50;;;2.90;;
31531;SDS011;23787;52.180;5.288;2022-07-29T10:47:01;7.60;;;3.10;;
31531;SDS011;23787;52.180;5.288;2022-07-29T10:52:03;7.60;;;3.10;;
31531;SDS011;23787;52.180;5.288;2022-07-29T10:57:11;7.60;;;3.10;;
31531;SDS011;23787;52.180;5.288;2022-07-29T11:02:01;6.20;;;2.70;;
31531;SDS011;23787;52.180;5.288;2022-07-29T11:07:08;6.20;;;2.70;;
31531;SDS011;23787;52.180;5.288;2022-07-29T11:17:03;7.00;;;2.80;;
31531;SDS011;23787;52.180;5.288;2022-07-29T11:22:01;7.00;;;2.80;;
31531;SDS011;23787;52.180;5.288;2022-07-29T11:27:12;7.00;;;2.80;;
31531;SDS011;23787;52.180;5.288;2022-07-29T11:32:09;6.90;;;2.80;;
31531;SDS011;23787;52.180;5.288;2022-07-29T11:37:19;6.90;;;2.80;;
31531;SDS011;23787;52.180;5.288;2022-07-29T11:47:01;8.80;;;3.50;;
31531;SDS011;23787;52.180;5.288;2022-07-29T11:52:01;8.80;;;3.50;;
31531;SDS011;23787;52.180;5.288;2022-07-29T11:57:01;8.80;;;3.50;;
31531;SDS011;23787;52.180;5.288;2022-07-29T12:02:01;7.80;;;3.50;;
31531;SDS011;23787;52.180;5.288;2022-07-29T12:07:01;7.80;;;3.50;;
31531;SDS011;23787;52.180;5.288;2022-07-29T12:12:01;7.80;;;3.50;;
31531;SDS011;23787;52.180;5.288;2022-07-29T12:17:01;7.30;;;4.10;;
31531;SDS011;23787;52.180;5.288;2022-07-29T12:22:01;7.30;;;4.10;;
31531;SDS011;23787;52.180;5.288;2022-07-29T12:27:01;7.30;;;4.10;;
31531;SDS011;23787;52.180;5.288;2022-07-29T12:32:02;8.70;;;4.30;;
31531;SDS011;23787;52.180;5.288;2022-07-29T12:37:01;8.70;;;4.30;;
31531;SDS011;23787;52.180;5.288;2022-07-29T12:42:11;8.70;;;4.30;;
31531;SDS011;23787;52.180;5.288;2022-07-29T12:47:01;6.90;;;4.10;;
31531;SDS011;23787;52.180;5.288;2022-07-29T12:57:01;6.90;;;4.10;;
31531;SDS011;23787;52.180;5.288;2022-07-29T13:02:01;9.80;;;3.70;;
31531;SDS011;23787;52.180;5.288;2022-07-29T13:07:02;9.80;;;3.70;;
31531;SDS011;23787;52.180;5.288;2022-07-29T13:12:05;9.80;;;3.70;;
31531;SDS011;23787;52.180;5.288;2022-07-29T13:17:04;7.20;;;3.80;;
31531;SDS011;23787;52.180;5.288;2022-07-29T13:22:01;7.20;;;3.80;;
31531;SDS011;23787;52.180;5.288;2022-07-29T13:27:01;7.20;;;3.80;;
31531;SDS011;23787;52.180;5.288;2022-07-29T13:32:01;7.10;;;3.80;;
31531;SDS011;23787;52.180;5.288;2022-07-29T13:37:01;7.10;;;3.80;;
31531;SDS011;23787;52.180;5.288;2022-07-29T13:42:01;7.10;;;3.80;;
31531;SDS011;23787;52.180;5.288;2022-07-29T13:47:01;6.20;;;2.70;;
31531;SDS011;23787;52.180;5.288;2022-07-29T13:52:01;6.20;;;2.70;;
31531;SDS011;23787;52.180;5.288;2022-07-29T13:57:01;6.20;;;2.70;;
31531;SDS011;23787;52.180;5.288;2022-07-29T14:02:01;6.70;;;3.00;;
31531;SDS011;23787;52.180;5.288;2022-07-29T14:07:01;6.70;;;3.00;;
31531;SDS011;23787;52.180;5.288;2022-07-29T14:12:01;6.70;;;3.00;;
31531;SDS011;23787;52.180;5.288;2022-07-29T14:17:01;6.30;;;2.60;;
31531;SDS011;23787;52.180;5.288;2022-07-29T14:22:02;6.30;;;2.60;;
31531;SDS011;23787;52.180;5.288;2022-07-29T14:27:02;6.30;;;2.60;;
31531;SDS011;23787;52.180;5.288;2022-07-29T14:37:01;6.50;;;2.30;;
31531;SDS011;23787;52.180;5.288;2022-07-29T14:42:01;6.50;;;2.30;;
31531;SDS011;23787;52.180;5.288;2022-07-29T14:47:01;7.50;;;2.30;;
31531;SDS011;23787;52.180;5.288;2022-07-29T14:57:01;7.50;;;2.30;;
31531;SDS011;23787;52.180;5.288;2022-07-29T15:02:01;5.90;;;2.00;;
31531;SDS011;23787;52.180;5.288;2022-07-29T15:07:01;5.90;;;2.00;;
31531;SDS011;23787;52.180;5.288;2022-07-29T15:12:01;5.90;;;2.00;;
31531;SDS011;23787;52.180;5.288;2022-07-29T15:17:01;4.30;;;2.10;;
31531;SDS011;23787;52.180;5.288;2022-07-29T15:22:02;4.30;;;2.10;;
31531;SDS011;23787;52.180;5.288;2022-07-29T15:27:01;4.30;;;2.10;;
31531;SDS011;23787;52.180;5.288;2022-07-29T15:32:01;6.60;;;2.20;;
31531;SDS011;23787;52.180;5.288;2022-07-29T15:37:01;6.60;;;2.20;;
31531;SDS011;23787;52.180;5.288;2022-07-29T15:42:02;6.60;;;2.20;;
31531;SDS011;23787;52.180;5.288;2022-07-29T15:47:01;4.60;;;2.00;;
31531;SDS011;23787;52.180;5.288;2022-07-29T15:52:03;4.60;;;2.00;;
31531;SDS011;23787;52.180;5.288;2022-07-29T15:57:02;4.60;;;2.00;;
31531;SDS011;23787;52.180;5.288;2022-07-29T16:07:01;4.50;;;2.30;;
31531;SDS011;23787;52.180;5.288;2022-07-29T16:12:01;4.50;;;2.30;;
31531;SDS011;23787;52.180;5.288;2022-07-29T16:17:01;5.60;;;2.20;;
31531;SDS011;23787;52.180;5.288;2022-07-29T16:22:01;5.60;;;2.20;;
31531;SDS011;23787;52.180;5.288;2022-07-29T16:27:01;5.60;;;2.20;;
31531;SDS011;23787;52.180;5.288;2022-07-29T16:32:01;9.30;;;2.40;;
31531;SDS011;23787;52.180;5.288;2022-07-29T16:37:01;9.30;;;2.40;;
31531;SDS011;23787;52.180;5.288;2022-07-29T16:42:01;9.30;;;2.40;;
31531;SDS011;23787;52.180;5.288;2022-07-29T16:47:02;6.80;;;2.80;;
31531;SDS011;23787;52.180;5.288;2022-07-29T16:57:01;6.80;;;2.80;;
31531;SDS011;23787;52.180;5.288;2022-07-29T17:02:01;5.90;;;2.40;;
31531;SDS011;23787;52.180;5.288;2022-07-29T17:07:01;5.90;;;2.40;;
31531;SDS011;23787;52.180;5.288;2022-07-29T17:12:01;5.90;;;2.40;;
31531;SDS011;23787;52.180;5.288;2022-07-29T17:17:01;4.00;;;2.10;;
31531;SDS011;23787;52.180;5.288;2022-07-29T17:27:01;4.00;;;2.10;;
31531;SDS011;23787;52.180;5.288;2022-07-29T17:32:01;8.10;;;2.40;;
31531;SDS011;23787;52.180;5.288;2022-07-29T17:37:01;8.10;;;2.40;;
31531;SDS011;23787;52.180;5.288;2022-07-29T17:42:01;8.10;;;2.40;;
31531;SDS011;23787;52.180;5.288;2022-07-29T17:47:02;3.50;;;2.40;;
31531;SDS011;23787;52.180;5.288;2022-07-29T17:52:01;3.50;;;2.40;;
31531;SDS011;23787;52.180;5.288;2022-07-29T17:57:01;3.50;;;2.40;;
31531;SDS011;23787;52.180;5.288;2022-07-29T18:02:01;6.20;;;2.40;;
31531;SDS011;23787;52.180;5.288;2022-07-29T18:07:01;6.20;;;2.40;;
31531;SDS011;23787;52.180;5.288;2022-07-29T18:12:01;6.20;;;2.40;;
31531;SDS011;23787;52.180;5.288;2022-07-29T18:22:01;6.00;;;2.20;;
31531;SDS011;23787;52.180;5.288;2022-07-29T18:27:01;6.00;;;2.20;;
31531;SDS011;23787;52.180;5.288;2022-07-29T18:32:01;9.00;;;2.60;;
31531;SDS011;23787;52.180;5.288;2022-07-29T18:37:01;9.00;;;2.60;;
31531;SDS011;23787;52.180;5.288;2022-07-29T18:42:02;9.00;;;2.60;;
31531;SDS011;23787;52.180;5.288;2022-07-29T18:47:01;7.10;;;2.80;;
31531;SDS011;23787;52.180;5.288;2022-07-29T18:52:01;7.10;;;2.80;;
31531;SDS011;23787;52.180;5.288;2022-07-29T18:57:01;7.10;;;2.80;;
31531;SDS011;23787;52.180;5.288;2022-07-29T19:02:01;6.50;;;2.90;;
31531;SDS011;23787;52.180;5.288;2022-07-29T19:07:01;6.50;;;2.90;;
31531;SDS011;23787;52.180;5.288;2022-07-29T19:12:01;6.50;;;2.90;;
31531;SDS011;23787;52.180;5.288;2022-07-29T19:17:01;7.20;;;2.80;;
31531;SDS011;23787;52.180;5.288;2022-07-29T19:27:01;7.20;;;2.80;;
31531;SDS011;23787;52.180;5.288;2022-07-29T19:32:01;4.80;;;2.80;;
31531;SDS011;23787;52.180;5.288;2022-07-29T19:37:01;4.80;;;2.80;;
31531;SDS011;23787;52.180;5.288;2022-07-29T19:42:01;4.80;;;2.80;;
31531;SDS011;23787;52.180;5.288;2022-07-29T19:52:01;7.30;;;2.70;;
31531;SDS011;23787;52.180;5.288;2022-07-29T19:57:01;7.30;;;2.70;;
31531;SDS011;23787;52.180;5.288;2022-07-29T20:02:01;8.70;;;3.20;;
31531;SDS011;23787;52.180;5.288;2022-07-29T20:07:01;8.70;;;3.20;;
31531;SDS011;23787;52.180;5.288;2022-07-29T20:12:02;8.70;;;3.20;;
31531;SDS011;23787;52.180;5.288;2022-07-29T20:17:02;8.40;;;3.30;;
31531;SDS011;23787;52.180;5.288;2022-07-29T20:22:01;8.40;;;3.30;;
31531;SDS011;23787;52.180;5.288;2022-07-29T20:27:01;8.40;;;3.30;;
31531;SDS011;23787;52.180;5.288;2022-07-29T20:32:02;9.80;;;3.60;;
31531;SDS011;23787;52.180;5.288;2022-07-29T20:42:02;9.80;;;3.60;;
31531;SDS011;23787;52.180;5.288;2022-07-29T20:47:01;11.90;;;3.30;;
31531;SDS011;23787;52.180;5.288;2022-07-29T21:02:01;8.10;;;3.70;;
31531;SDS011;23787;52.180;5.288;2022-07-29T21:07:01;8.10;;;3.70;;
31531;SDS011;23787;52.180;5.288;2022-07-29T21:12:02;8.10;;;3.70;;
31531;SDS011;23787;52.180;5.288;2022-07-29T21:17:02;10.20;;;3.70;;
31531;SDS011;23787;52.180;5.288;2022-07-29T21:27:01;10.20;;;3.70;;
31531;SDS011;23787;52.180;5.288;2022-07-29T21:32:01;8.10;;;3.00;;
31531;SDS011;23787;52.180;5.288;2022-07-29T21:37:01;8.10;;;3.00;;
31531;SDS011;23787;52.180;5.288;2022-07-29T21:42:01;8.10;;;3.00;;
31531;SDS011;23787;52.180;5.288;2022-07-29T21:52:02;9.00;;;3.30;;
31531;SDS011;23787;52.180;5.288;2022-07-29T21:57:01;9.00;;;3.30;;
31531;SDS011;23787;52.180;5.288;2022-07-29T22:02:01;8.30;;;3.30;;
31531;SDS011;23787;52.180;5.288;2022-07-29T22:07:01;8.30;;;3.30;;
31531;SDS011;23787;52.180;5.288;2022-07-29T22:17:01;7.30;;;3.00;;
31531;SDS011;23787;52.180;5.288;2022-07-29T22:22:01;7.30;;;3.00;;
31531;SDS011;23787;52.180;5.288;2022-07-29T22:27:01;7.30;;;3.00;;
31531;SDS011;23787;52.180;5.288;2022-07-29T22:37:01;7.70;;;3.20;;
31531;SDS011;23787;52.180;5.288;2022-07-29T22:47:02;8.60;;;3.00;;
31531;SDS011;23787;52.180;5.288;2022-07-29T22:52:01;8.60;;;3.00;;
31531;SDS011;23787;52.180;5.288;2022-07-29T23:02:01;6.70;;;2.90;;
31531;SDS011;23787;52.180;5.288;2022-07-29T23:07:01;6.70;;;2.90;;
31531;SDS011;23787;52.180;5.288;2022-07-29T23:17:02;5.90;;;2.90;;
31531;SDS011;23787;52.180;5.288;2022-07-29T23:22:01;5.90;;;2.90;;
31531;SDS011;23787;52.180;5.288;2022-07-29T23:27:01;5.90;;;2.90;;
31531;SDS011;23787;52.180;5.288;2022-07-29T23:32:01;8.80;;;3.10;;
31531;SDS011;23787;52.180;5.288;2022-07-29T23:37:01;8.80;;;3.10;;
31531;SDS011;23787;52.180;5.288;2022-07-29T23:42:01;8.80;;;3.10;;
31531;SDS011;23787;52.180;5.288;2022-07-29T23:47:01;8.90;;;3.00;;
31531;SDS011;23787;52.180;5.288;2022-07-29T23:52:02;8.90;;;3.00;;
31531;SDS011;23787;52.180;5.288;2022-07-29T23:57:01;8.90;;;3.00;;
